AirNav   Everest Fuels
 
 957 users online  

25SC Mountain Ridge Airport
Greenville, South Carolina, USA

GOING TO GREENVILLE?


FAA INFORMATION EFFECTIVE 10 SEPTEMBER 2020

Location

FAA Identifier: 25SC
Lat/Long: 34-57-38.0000N 082-20-22.0000W
34-57.633333N 082-20.366667W
34.9605556,-82.3394444
(estimated)
Elevation: 980 ft. / 299 m (estimated)
From city: 9 miles NE of GREENVILLE, SC
Time zone: UTC -4 (UTC -5 during Standard Time)
Zip code: 29687

Airport Operations

Airport use: Private use. Permission required prior to landing
Activation date: 04/2005
Control tower: no
ARTCC: ATLANTA CENTER
FSS: ANDERSON FLIGHT SERVICE STATION
Attendance: UNATNDD
Segmented circle: no

Airport Communications

WX ASOS at GMU (7 nm S): 127.075 (864-239-0014)
WX ASOS at GSP (7 nm SE): 134.25 (864-879-0614)
WX AWOS-3 at GYH (12 nm S): 127.325 (864-277-5674)
WX AWOS-3 at SPA (19 nm E): 133.925 (864-587-2529)

Nearby radio navigation aids

VOR radial/distance  VOR name  Freq  Var
SPAr260/20.7SPARTANBURG VORTAC115.7002W
SUGr189/27.0SUGARLOAF MOUNTAIN VORTAC112.2002W
ELWr034/39.2ELECTRIC CITY VORTAC108.6000E

 
NDB name  Hdg/Dist  Freq  Var  ID
JUDKY008/10.852105WGM --. --
FAIRMONT287/17.824805WFRT ..-. .-. -
BROAD RIVER168/19.837907WBRA -... .-. .-
UNION COUNTY302/38.132606WUOT ..- --- -

Airport Services

Runway Information

Runway 5/23

Dimensions: 1950 x 60 ft. / 594 x 18 m
Surface: asphalt
RUNWAY 5  RUNWAY 23
Traffic pattern: leftleft

Airport Ownership and Management from official FAA records

Ownership: Privately-owned
Owner: KAREN E. MCCLARAN
400 EAST DARBY ROAD
TAYLORS, SC 29687
Phone 864-244-5284
Manager: KAREN E. MCCLARAN
400 EAST DARBY ROAD
TAYLORS, SC 29687
Phone 864-244-5284

Additional Remarks

FOR CD CTC ATLANTA ARTCC AT 770-210-7692.

Instrument Procedures

There are no published instrument procedures at 25SC.

Some nearby airports with instrument procedures:

KGMU - Greenville Downtown Airport (7 nm S)
KGSP - Greenville Spartanburg International Airport (7 nm SE)
KGYH - Donaldson Field Airport (12 nm S)
KSPA - Spartanburg Downtown Memorial Airport/Simpson Field (19 nm E)
KLQK - Pickens County Airport (20 nm SW)
 
Loc | Ops | Rwys | IFR | FBO | Links
Com | Nav | Svcs | Stats | Notes
Area around 25SC (Mountain Ridge Airport)
 
Road maps at: MapQuest Bing Google
 
Aerial photo
No photo
 
Sectional chart

 
Airport distance calculator
Flying to Mountain Ridge Airport? Find the distance to fly.

From to 25SC

Sunrise and sunset
Times for 18-Sep-2020
 Local
(UTC-4)
 Zulu
(UTC)
Morning civil twilight06:5110:51
Sunrise07:1611:16
Sunset19:3023:30
Evening civil twilight19:5523:55

Current date and time
Zulu (UTC)  19-Sep-2020 02:24:36
Local (UTC-4)  18-Sep-2020 22:24:36
 
METAR
KGMU 
7nm S 
190153Z AUTO 02009KT 10SM CLR 21/15 A3008 RMK AO2 SLP176 T02110150
KGSP 
7nm SE 
190153Z 01005KT 10SM FEW055 19/16 A3008 RMK AO2 SLP175 T01940161
KGYH 
12nm S 
190155Z AUTO 01005KT 10SM CLR 21/15 A3007 RMK AO2
TAF
KGMU 
7nm S 
181737Z 1818/1918 04009KT P6SM SCT040 BKN250 FM190000 02008KT P6SM FEW050 BKN250 FM190600 03010KT P6SM BKN050 FM191500 05013G20KT P6SM SCT050 BKN100
KGSP 
7nm SE 
181737Z 1818/1918 03010G17KT P6SM SCT040 BKN250 FM182100 02009KT P6SM FEW050 BKN250 FM190600 03008KT P6SM BKN045 FM191400 04010G18KT P6SM BKN060
NOTAMs
Click for the latest NOTAMs
NOTAMs are issued by the DoD/FAA and will open in a separate window not controlled by AirNav.

 

 
 

Would you like to see your business listed on this page?

 If your business provides an interesting product or service to pilots, flight crews, aircraft, or users of the Mountain Ridge Airport, you should consider listing it here.  To start the listing process, click on the button below
 
Add a business
 

Other Pages about Mountain Ridge Airport

Update a link
 
Copyright © AirNav, LLC. All rights reserved. Privacy Policy  Contact